Virginia — WDB2867 — position and weather

sailwx.info

Track history (hours):
 
Tides and Currents Weather Stations Pressure Air Temp Water Temp Dewpoint Dewpoint Depression Visibility Wind Speed Wind Dir Waves Ship Positions

Virginia

Owner: VIRGINIA PILOT BOAT CORPORATION, VIRGINIA BEACH, VA. More information available from US FCC via Universal Licensing System and Coast Guard Vessel Documentation Center.

Last reported at 2017-Dec-17 15:04 UTC. Time now 2017-Dec-17 17:41 UTC.
Position N 36°54' W 076°05'.

Length 17 m; draft 1.5 m.

Type: Pilot. MMSI: 366880750.

Date/timePositionNaut miles runAvg speedWind from/ knotsBaromVisibWave heightAir tempDewpointWater temp
2017-Dec-17 15:04N 36°54' W 076°05'0 0.0
2017-Dec-17 15:00N 36°54' W 076°05'0 0.0
2017-Dec-17 14:30N 36°54' W 076°05'0 0.0
2017-Dec-17 14:00N 36°54' W 076°05'0 0.0
2017-Dec-17 13:30N 36°54' W 076°05'0 0.0
2017-Dec-17 13:01N 36°54' W 076°05'0 0.0
2017-Dec-17 12:30N 36°54' W 076°05'0 0.0
2017-Dec-17 09:10N 36°54' W 076°05'5 9.8
2017-Dec-17 08:38N 36°58' W 076°01'322.5
2017-Dec-17 08:30N 36°56' W 076°04'2 1.0
2017-Dec-17 06:16N 36°54' W 076°06'415.6
2017-Dec-17 06:00N 36°57' W 076°01'4 5.9
2017-Dec-17 05:16N 36°54' W 076°05'0 0.0
2017-Dec-17 04:27N 36°54' W 076°05'0 0.0
2017-Dec-17 03:26N 36°54' W 076°05'1 0.4
2017-Dec-17 00:46N 36°55' W 076°05'1 0.3
2017-Dec-16 21:51N 36°54' W 076°05'0 0.0
2017-Dec-16 21:30N 36°54' W 076°05'0 0.0
2017-Dec-16 21:01N 36°54' W 076°05'0 0.0
2017-Dec-16 20:31N 36°54' W 076°05'0 0.0
2017-Dec-16 20:01N 36°54' W 076°05'0 0.0
2017-Dec-16 19:30N 36°54' W 076°05'0 0.0
2017-Dec-16 19:00N 36°54' W 076°05'0 0.0
2017-Dec-16 18:30N 36°54' W 076°05'0 0.0
2017-Dec-16 18:00N 36°54' W 076°05'2 3.6
2017-Dec-16 17:30N 36°56' W 076°04'4 8.5
2017-Dec-16 17:00N 36°56' W 075°59'610.8
2017-Dec-16 16:30N 36°54' W 076°05'0 0.0
2017-Dec-16 15:59N 36°54' W 076°05'3 6.9
2017-Dec-16 15:30N 36°57' W 076°02'3 6.6
2017-Dec-16 15:00N 36°54' W 076°05'0 0.0
2017-Dec-16 14:30N 36°54' W 076°05'0 0.0
2017-Dec-16 14:00N 36°54' W 076°05'0 0.0
2017-Dec-16 13:30N 36°54' W 076°05'0 0.0
2017-Dec-16 13:00N 36°54' W 076°05'0 0.0
2017-Dec-16 12:31N 36°54' W 076°05'1 0.3
2017-Dec-16 09:25N 36°55' W 076°05'8 2.9
2017-Dec-16 06:51N 36°56' W 075°56'615.6
2017-Dec-16 06:29N 36°56' W 076°03'2 2.4
2017-Dec-16 05:31N 36°57' W 076°00'1 8.4
2017-Dec-16 05:22N 36°57' W 076°02'2 0.2
2017-Dec-15 21:46N 36°59' W 076°02'519.9
2017-Dec-15 21:30N 36°54' W 076°05'0 0.2
2017-Dec-15 21:00N 36°54' W 076°05'0 0.0
2017-Dec-15 20:30N 36°54' W 076°05'0 0.0
2017-Dec-15 20:00N 36°54' W 076°05'0 0.0
2017-Dec-15 14:05N 36°54' W 076°05'0 0.1
2017-Dec-15 14:00N 36°54' W 076°05'0 0.0
2017-Dec-15 13:30N 36°54' W 076°05'0 0.0
2017-Dec-15 13:00N 36°54' W 076°05'0 0.0
2017-Dec-15 12:30N 36°54' W 076°05'0 0.1
2017-Dec-15 11:46N 36°54' W 076°05'410.0
2017-Dec-15 11:23N 36°57' W 076°02'4 2.4
2017-Dec-15 09:47N 36°54' W 076°05'413.1
2017-Dec-15 09:30N 36°57' W 076°02'3 3.4
2017-Dec-15 08:36N 36°55' W 076°05'1 4.7
2017-Dec-15 08:24N 36°54' W 076°05'0 0.0
2017-Dec-15 07:59N 36°54' W 076°05'0 0.0
2017-Dec-15 06:23N 36°54' W 076°05'5 8.1
2017-Dec-15 05:49N 36°57' W 076°00'310.6
2017-Dec-15 05:30N 36°56' W 076°04'1 0.4
2017-Dec-15 02:27N 36°57' W 076°03'3 0.3
2017-Dec-14 18:30N 36°54' W 076°05'0 0.0
2017-Dec-14 18:00N 36°54' W 076°05'0 0.0
2017-Dec-14 17:30N 36°54' W 076°05'0 0.0
2017-Dec-14 17:00N 36°54' W 076°05'0 0.0
2017-Dec-14 16:30N 36°54' W 076°05'3 5.4
2017-Dec-14 15:51N 36°57' W 076°03'3 4.1
2017-Dec-14 15:00N 36°54' W 076°05'0 0.0
2017-Dec-14 14:30N 36°54' W 076°05'0 0.0
2017-Dec-14 14:00N 36°54' W 076°05'0 0.0
2017-Dec-14 13:30N 36°54' W 076°05'4 6.2
2017-Dec-14 12:52N 36°57' W 076°02'410.8
2017-Dec-14 12:30N 36°54' W 076°05'2 0.7
2017-Dec-14 09:25N 36°57' W 076°05'1 1.1
2017-Dec-14 08:18N 36°55' W 076°05'1 1.6
2017-Dec-14 07:44N 36°54' W 076°05'2 2.7
2017-Dec-14 07:00N 36°56' W 076°04'2 0.7
2017-Dec-14 03:57N 36°54' W 076°05'0 0.0
2017-Dec-13 22:06N 36°54' W 076°05'0 0.0
2017-Dec-13 21:58N 36°54' W 076°05'0 0.0
2017-Dec-13 21:31N 36°54' W 076°05'4 7.5
2017-Dec-13 21:00N 36°57' W 076°02'4 7.7
2017-Dec-13 20:30N 36°54' W 076°05'0 0.0
2017-Dec-13 20:00N 36°54' W 076°05'0 0.0
2017-Dec-13 19:31N 36°54' W 076°05'0 0.0
2017-Dec-13 19:00N 36°54' W 076°05'0 0.0
2017-Dec-13 18:30N 36°54' W 076°05'0 0.0
2017-Dec-13 18:00N 36°54' W 076°05'0 0.0
2017-Dec-13 17:30N 36°54' W 076°05'0 0.0
2017-Dec-13 17:00N 36°54' W 076°05'0 0.0
2017-Dec-13 16:31N 36°54' W 076°05'0 0.0
2017-Dec-13 16:00N 36°54' W 076°05'0 0.0
2017-Dec-13 15:31N 36°54' W 076°05'1 1.7
2017-Dec-13 15:00N 36°55' W 076°05'1 1.9
2017-Dec-13 14:30N 36°56' W 076°04'2 3.3
2017-Dec-13 14:00N 36°54' W 076°05'0 0.0
2017-Dec-13 13:30N 36°54' W 076°05'0 0.0
2017-Dec-13 13:00N 36°54' W 076°05'0 0.0
2017-Dec-13 12:30N 36°54' W 076°05'1 1.5
2017-Dec-13 12:00N 36°55' W 076°05'1 1.5
2017-Dec-13 11:30N 36°54' W 076°05'0 0.0
2017-Dec-13 10:58N 36°54' W 076°05'0 0.0
2017-Dec-13 10:29N 36°54' W 076°05'0 0.0
2017-Dec-13 09:20N 36°54' W 076°05'613.8
2017-Dec-13 08:53N 36°56' W 075°58'615.0
2017-Dec-13 08:30N 36°55' W 076°05'1 2.2
2017-Dec-13 08:00N 36°54' W 076°05'0 0.0
2017-Dec-13 07:28N 36°54' W 076°05'0 0.0
2017-Dec-13 07:00N 36°54' W 076°05'0 0.0
2017-Dec-13 06:29N 36°54' W 076°05'0 0.0
2017-Dec-13 05:56N 36°54' W 076°05'0 0.0
2017-Dec-13 05:30N 36°54' W 076°05'0 0.0
2017-Dec-13 04:57N 36°54' W 076°05'0 0.0
2017-Dec-13 04:30N 36°54' W 076°05'0 0.0
2017-Dec-13 03:57N 36°54' W 076°05'0 0.0
2017-Dec-13 03:28N 36°54' W 076°05'0 0.0
2017-Dec-13 03:00N 36°54' W 076°05'0 0.0
2017-Dec-13 02:26N 36°54' W 076°05'4 8.1
2017-Dec-13 01:57N 36°57' W 076°02'4 5.5
2017-Dec-13 01:13N 36°54' W 076°05'516.8
2017-Dec-13 00:56N 36°57' W 076°00'510.7
2017-Dec-13 00:30N 36°54' W 076°06'0 0.2
2017-Dec-12 23:56N 36°54' W 076°05'0 0.0
2017-Dec-12 23:29N 36°54' W 076°05'0 0.0
2017-Dec-12 21:57N 36°54' W 076°05'0 0.0
2017-Dec-12 21:30N 36°54' W 076°05'0 0.0
2017-Dec-12 21:00N 36°54' W 076°05'0 0.0
2017-Dec-12 20:30N 36°54' W 076°05'0 0.0
2017-Dec-12 20:00N 36°54' W 076°05'0 0.0
2017-Dec-12 19:30N 36°54' W 076°05'0 0.0
2017-Dec-12 19:01N 36°54' W 076°05'3 6.1
2017-Dec-12 18:30N 36°57' W 076°03'3 6.1
2017-Dec-12 18:00N 36°54' W 076°05'0 0.0
2017-Dec-12 17:30N 36°54' W 076°05'0 0.0
2017-Dec-12 17:00N 36°54' W 076°05'0 0.0
2017-Dec-12 16:30N 36°54' W 076°05'0 0.0
2017-Dec-12 16:00N 36°54' W 076°05'0 0.0
2017-Dec-12 15:30N 36°54' W 076°05'0 0.0
2017-Dec-12 15:00N 36°54' W 076°05'4 8.4
2017-Dec-12 14:28N 36°57' W 076°01'2 4.5
2017-Dec-12 13:58N 36°57' W 076°03'3 7.5
2017-Dec-12 13:30N 36°54' W 076°05'0 0.0
2017-Dec-12 13:01N 36°54' W 076°05'0 0.0
2017-Dec-12 12:30N 36°54' W 076°05'0 0.1
2017-Dec-12 10:25N 36°54' W 076°06'1 2.2
2017-Dec-12 09:57N 36°55' W 076°05'1 1.6
2017-Dec-12 09:17N 36°54' W 076°05'0 0.0
2017-Dec-12 08:56N 36°54' W 076°05'0 0.0
2017-Dec-12 08:30N 36°54' W 076°05'0 0.0
2017-Dec-12 07:55N 36°54' W 076°05'0 0.0
2017-Dec-12 07:29N 36°54' W 076°05'0 0.0
2017-Dec-12 06:29N 36°54' W 076°05'0 0.0
2017-Dec-12 06:00N 36°54' W 076°05'0 0.0
2017-Dec-12 05:27N 36°54' W 076°05'0 0.0
2017-Dec-12 04:59N 36°54' W 076°05'0 0.0
2017-Dec-12 04:05N 36°54' W 076°05'0 0.0
2017-Dec-12 03:57N 36°54' W 076°05'0 0.0
2017-Dec-12 03:10N 36°54' W 076°05'3 4.0
2017-Dec-12 02:29N 36°57' W 076°03'3 2.8
2017-Dec-12 01:31N 36°54' W 076°05'0 5.8
2017-Dec-12 01:29N 36°54' W 076°06'1 1.6
2017-Dec-12 01:00N 36°55' W 076°05'1 1.0
2017-Dec-12 00:13N 36°54' W 076°06'2 4.5
2017-Dec-11 23:47N 36°56' W 076°06'2 7.1
2017-Dec-11 23:29N 36°54' W 076°05'0 0.0
2017-Dec-11 22:57N 36°54' W 076°05'0 0.0
2017-Dec-11 22:30N 36°54' W 076°05'0 0.0
2017-Dec-11 22:00N 36°54' W 076°05'0 0.0
2017-Dec-11 21:30N 36°54' W 076°05'0 0.0
2017-Dec-11 21:00N 36°54' W 076°05'0 0.0
2017-Dec-11 20:30N 36°54' W 076°05'0 0.0
2017-Dec-11 20:00N 36°54' W 076°05'0 0.0
2017-Dec-11 19:30N 36°54' W 076°05'0 0.0
2017-Dec-11 19:00N 36°54' W 076°05'0 0.0
2017-Dec-11 18:30N 36°54' W 076°05'811.6
2017-Dec-11 17:50N 36°56' W 075°56'720.2
2017-Dec-11 17:30N 36°56' W 076°04'2 3.6
2017-Dec-11 17:00N 36°54' W 076°05'4 7.5
2017-Dec-11 16:26N 36°57' W 076°01'4 9.7
2017-Dec-11 16:00N 36°54' W 076°05'0 0.1
2017-Dec-11 15:30N 36°54' W 076°05'0 0.1
2017-Dec-11 15:01N 36°54' W 076°05'0 0.0
2017-Dec-11 14:31N 36°54' W 076°05'0 0.0
2017-Dec-11 14:01N 36°54' W 076°05'0 0.0
2017-Dec-11 13:30N 36°54' W 076°05'0 0.0
2017-Dec-11 13:00N 36°54' W 076°05'0 0.0
2017-Dec-11 12:30N 36°54' W 076°05'3 6.7
2017-Dec-11 12:00N 36°57' W 076°02'3 2.0
2017-Dec-11 10:18N 36°54' W 076°05'410.5
2017-Dec-11 09:54N 36°57' W 076°01'4 9.2
2017-Dec-11 09:27N 36°54' W 076°05'0 0.0
2017-Dec-11 08:59N 36°54' W 076°05'0 0.0
2017-Dec-11 08:30N 36°54' W 076°05'0 0.0
2017-Dec-11 08:00N 36°54' W 076°05'0 0.0
2017-Dec-11 07:30N 36°54' W 076°05'0 0.0
2017-Dec-11 07:00N 36°54' W 076°05'0 0.0
2017-Dec-11 06:28N 36°54' W 076°05'0 0.0
2017-Dec-11 06:00N 36°54' W 076°05'0 0.0
2017-Dec-11 05:30N 36°54' W 076°05'0 0.0
2017-Dec-11 04:59N 36°54' W 076°05'0 0.0
2017-Dec-11 04:30N 36°54' W 076°05'0 0.0
2017-Dec-11 03:58N 36°54' W 076°05'0 0.0
2017-Dec-11 03:28N 36°54' W 076°05'0 0.0
2017-Dec-11 02:23N 36°54' W 076°05'0 0.0
2017-Dec-11 01:58N 36°54' W 076°05'0 0.0
2017-Dec-11 01:24N 36°54' W 076°05'0 0.0
2017-Dec-11 00:59N 36°54' W 076°05'0 0.0
2017-Dec-10 23:07N 36°54' W 076°05'0 0.0
2017-Dec-10 21:58N 36°54' W 076°05'4 8.4
2017-Dec-10 21:30N 36°57' W 076°02'4 7.8
2017-Dec-10 21:00N 36°54' W 076°05'0 0.0
2017-Dec-10 20:30N 36°54' W 076°05'0 0.0
2017-Dec-10 20:00N 36°54' W 076°05'0 0.0
2017-Dec-10 19:30N 36°54' W 076°05'0 0.0
2017-Dec-10 19:00N 36°54' W 076°05'1 2.1
2017-Dec-10 18:30N 36°55' W 076°05'714.5
2017-Dec-10 17:59N 36°56' W 075°55'816.6
2017-Dec-10 17:30N 36°55' W 076°05'0 0.8
2017-Dec-10 17:00N 36°54' W 076°05'0 0.0
2017-Dec-10 16:30N 36°54' W 076°05'1 3.0
2017-Dec-10 16:00N 36°56' W 076°04'1 3.0
2017-Dec-10 15:30N 36°54' W 076°05'4 8.6
2017-Dec-10 15:00N 36°57' W 076°01'4 8.7
2017-Dec-10 14:30N 36°54' W 076°05'0 0.0
2017-Dec-10 14:00N 36°54' W 076°05'0 0.0
2017-Dec-10 13:30N 36°54' W 076°05'0 0.0
2017-Dec-10 13:00N 36°54' W 076°05'0 0.0
2017-Dec-10 12:30N 36°54' W 076°05'0 0.0
2017-Dec-10 08:11N 36°54' W 076°05'0 0.0
2017-Dec-10 07:52N 36°54' W 076°05'0 0.0
2017-Dec-10 07:29N 36°54' W 076°05'0 0.0
2017-Dec-10 06:59N 36°54' W 076°05'0 0.0
2017-Dec-10 06:23N 36°54' W 076°05'0 0.0
2017-Dec-10 05:36N 36°54' W 076°05'0 0.0
2017-Dec-10 05:30N 36°54' W 076°05'0 0.0
2017-Dec-10 04:58N 36°54' W 076°05'0 0.0
2017-Dec-10 04:21N 36°54' W 076°05'0 0.0
2017-Dec-10 03:57N 36°54' W 076°05'0 0.0
2017-Dec-10 03:22N 36°54' W 076°05'0 0.0
2017-Dec-09 21:57N 36°54' W 076°05'0 0.0
2017-Dec-09 21:30N 36°54' W 076°05'0 0.0
2017-Dec-09 21:00N 36°54' W 076°05'0 0.0
2017-Dec-09 20:30N 36°54' W 076°05'3 6.8
2017-Dec-09 20:00N 36°56' W 076°02'5 9.7
2017-Dec-09 19:30N 36°56' W 075°56'815.2
2017-Dec-09 19:00N 36°55' W 076°05'1 1.5
2017-Dec-09 18:30N 36°54' W 076°05'710.9
2017-Dec-09 17:52N 36°56' W 075°57'3 8.8
2017-Dec-09 17:31N 36°56' W 076°01'4 8.3
2017-Dec-09 17:00N 36°54' W 076°05'0 0.0
2017-Dec-09 16:30N 36°54' W 076°05'0 0.0
2017-Dec-09 16:00N 36°54' W 076°05'0 0.0
2017-Dec-09 15:30N 36°54' W 076°05'0 0.0
2017-Dec-09 15:00N 36°54' W 076°05'0 0.0
2017-Dec-09 14:30N 36°54' W 076°05'0 0.0
2017-Dec-09 14:00N 36°54' W 076°05'0 0.0
2017-Dec-09 13:30N 36°54' W 076°05'0 0.0
2017-Dec-09 13:00N 36°54' W 076°05'0 0.0
2017-Dec-09 12:30N 36°54' W 076°05'0 0.0
2017-Dec-09 09:24N 36°55' W 076°06'0 0.4
2017-Dec-09 08:58N 36°54' W 076°05'0 0.0
2017-Dec-09 06:27N 36°54' W 076°05'0 0.0
2017-Dec-09 04:19N 36°54' W 076°05'0 0.0
2017-Dec-09 03:59N 36°54' W 076°05'0 0.0
2017-Dec-09 03:28N 36°54' W 076°05'1 0.3
2017-Dec-08 23:49N 36°56' W 076°05'1 0.6
2017-Dec-08 21:58N 36°54' W 076°05'0 0.0
2017-Dec-08 21:30N 36°54' W 076°05'0 0.0
2017-Dec-08 21:00N 36°54' W 076°05'0 0.0
2017-Dec-08 20:30N 36°54' W 076°05'0 0.0
2017-Dec-08 20:00N 36°54' W 076°05'0 0.0
2017-Dec-08 19:31N 36°54' W 076°05'0 0.0
2017-Dec-08 19:01N 36°54' W 076°05'0 0.0
2017-Dec-08 18:30N 36°54' W 076°05'0 0.0
2017-Dec-08 18:01N 36°54' W 076°05'0 0.0
2017-Dec-08 17:30N 36°54' W 076°05'0 0.0
2017-Dec-08 17:00N 36°54' W 076°05'0 0.0
2017-Dec-08 16:30N 36°54' W 076°05'0 0.1
2017-Dec-08 16:00N 36°54' W 076°05'1 2.9
2017-Dec-08 15:30N 36°56' W 076°04'1 2.9
2017-Dec-08 15:00N 36°54' W 076°05'1 2.6
2017-Dec-08 14:31N 36°56' W 076°05'1 2.6
2017-Dec-08 14:00N 36°54' W 076°05'0 0.0
2017-Dec-08 13:30N 36°54' W 076°05'0 0.0
2017-Dec-08 13:00N 36°54' W 076°05'0 0.0
2017-Dec-08 12:30N 36°54' W 076°05'2 0.8
2017-Dec-08 10:28N 36°56' W 076°04'2 2.8
2017-Dec-08 09:52N 36°54' W 076°05'0 0.0
2017-Dec-08 09:29N 36°54' W 076°05'0 0.0
2017-Dec-08 08:59N 36°54' W 076°05'0 0.0
2017-Dec-08 08:26N 36°54' W 076°05'0 0.0
2017-Dec-08 07:55N 36°54' W 076°05'0 0.0
2017-Dec-08 07:26N 36°54' W 076°05'0 0.0
2017-Dec-08 06:56N 36°54' W 076°05'0 0.0
2017-Dec-08 06:29N 36°54' W 076°05'0 0.0
2017-Dec-08 06:00N 36°54' W 076°05'0 0.0
2017-Dec-08 05:28N 36°54' W 076°05'0 0.0
2017-Dec-08 04:59N 36°54' W 076°05'0 0.0
2017-Dec-08 04:29N 36°54' W 076°05'0 0.0
2017-Dec-08 04:00N 36°54' W 076°05'0 0.0
2017-Dec-08 03:30N 36°54' W 076°05'0 0.0
2017-Dec-08 03:00N 36°54' W 076°05'0 0.0
2017-Dec-08 02:21N 36°54' W 076°05'0 0.0
2017-Dec-08 01:56N 36°54' W 076°05'0 0.0
2017-Dec-08 01:30N 36°54' W 076°05'0 0.0
2017-Dec-08 00:59N 36°54' W 076°05'0 0.0
2017-Dec-08 00:30N 36°54' W 076°05'0 0.0
2017-Dec-07 23:00N 36°54' W 076°05'0 0.0
2017-Dec-07 21:57N 36°54' W 076°05'0 0.0
2017-Dec-07 21:30N 36°54' W 076°05'0 0.0
2017-Dec-07 21:00N 36°54' W 076°05'0 0.0
2017-Dec-07 20:30N 36°54' W 076°05'4 8.1
2017-Dec-07 20:00N 36°57' W 076°01'4 8.0
2017-Dec-07 19:30N 36°54' W 076°05'814.6
2017-Dec-07 18:56N 36°55' W 075°55'819.9
2017-Dec-07 18:30N 36°55' W 076°05'0 0.8
2017-Dec-07 17:59N 36°54' W 076°05'0 0.0
2017-Dec-07 17:30N 36°54' W 076°05'0 0.0
2017-Dec-07 17:00N 36°54' W 076°05'0 0.0
2017-Dec-07 16:30N 36°54' W 076°05'0 0.0
2017-Dec-07 16:00N 36°54' W 076°05'0 0.0
2017-Dec-07 15:30N 36°54' W 076°05'  
Track history (hours):
 
Tides and Currents Weather Stations Pressure Air Temp Water Temp Dewpoint Dewpoint Depression Visibility Wind Speed Wind Dir Waves Ship Positions

Virginia

Owner: VIRGINIA PILOT BOAT CORPORATION, VIRGINIA BEACH, VA. More information available from US FCC via Universal Licensing System and Coast Guard Vessel Documentation Center.

Last reported at 2017-Dec-17 15:04 UTC. Time now 2017-Dec-17 17:41 UTC.
Position N 36°54' W 076°05'.

Length 17 m; draft 1.5 m.

Type: Pilot. MMSI: 366880750.

Date/timePositionNaut miles runAvg speedWind from/ knotsBaromVisibWave heightAir tempDewpointWater temp
2017-Dec-17 15:04N 36°54' W 076°05'0 0.0
2017-Dec-17 15:00N 36°54' W 076°05'0 0.0
2017-Dec-17 14:30N 36°54' W 076°05'0 0.0
2017-Dec-17 14:00N 36°54' W 076°05'0 0.0
2017-Dec-17 13:30N 36°54' W 076°05'0 0.0
2017-Dec-17 13:01N 36°54' W 076°05'0 0.0
2017-Dec-17 12:30N 36°54' W 076°05'0 0.0
2017-Dec-17 09:10N 36°54' W 076°05'5 9.8
2017-Dec-17 08:38N 36°58' W 076°01'322.5
2017-Dec-17 08:30N 36°56' W 076°04'2 1.0
2017-Dec-17 06:16N 36°54' W 076°06'415.6
2017-Dec-17 06:00N 36°57' W 076°01'4 5.9
2017-Dec-17 05:16N 36°54' W 076°05'0 0.0
2017-Dec-17 04:27N 36°54' W 076°05'0 0.0
2017-Dec-17 03:26N 36°54' W 076°05'1 0.4
2017-Dec-17 00:46N 36°55' W 076°05'1 0.3
2017-Dec-16 21:51N 36°54' W 076°05'0 0.0
2017-Dec-16 21:30N 36°54' W 076°05'0 0.0
2017-Dec-16 21:01N 36°54' W 076°05'0 0.0
2017-Dec-16 20:31N 36°54' W 076°05'0 0.0
2017-Dec-16 20:01N 36°54' W 076°05'0 0.0
2017-Dec-16 19:30N 36°54' W 076°05'0 0.0
2017-Dec-16 19:00N 36°54' W 076°05'0 0.0
2017-Dec-16 18:30N 36°54' W 076°05'0 0.0
2017-Dec-16 18:00N 36°54' W 076°05'2 3.6
2017-Dec-16 17:30N 36°56' W 076°04'4 8.5
2017-Dec-16 17:00N 36°56' W 075°59'610.8
2017-Dec-16 16:30N 36°54' W 076°05'0 0.0
2017-Dec-16 15:59N 36°54' W 076°05'3 6.9
2017-Dec-16 15:30N 36°57' W 076°02'3 6.6
2017-Dec-16 15:00N 36°54' W 076°05'0 0.0
2017-Dec-16 14:30N 36°54' W 076°05'0 0.0
2017-Dec-16 14:00N 36°54' W 076°05'0 0.0
2017-Dec-16 13:30N 36°54' W 076°05'0 0.0
2017-Dec-16 13:00N 36°54' W 076°05'0 0.0
2017-Dec-16 12:31N 36°54' W 076°05'1 0.3
2017-Dec-16 09:25N 36°55' W 076°05'8 2.9
2017-Dec-16 06:51N 36°56' W 075°56'615.6
2017-Dec-16 06:29N 36°56' W 076°03'2 2.4
2017-Dec-16 05:31N 36°57' W 076°00'1 8.4
2017-Dec-16 05:22N 36°57' W 076°02'2 0.2
2017-Dec-15 21:46N 36°59' W 076°02'519.9
2017-Dec-15 21:30N 36°54' W 076°05'0 0.2
2017-Dec-15 21:00N 36°54' W 076°05'0 0.0
2017-Dec-15 20:30N 36°54' W 076°05'0 0.0
2017-Dec-15 20:00N 36°54' W 076°05'0 0.0
2017-Dec-15 14:05N 36°54' W 076°05'0 0.1
2017-Dec-15 14:00N 36°54' W 076°05'0 0.0
2017-Dec-15 13:30N 36°54' W 076°05'0 0.0
2017-Dec-15 13:00N 36°54' W 076°05'0 0.0
2017-Dec-15 12:30N 36°54' W 076°05'0 0.1
2017-Dec-15 11:46N 36°54' W 076°05'410.0
2017-Dec-15 11:23N 36°57' W 076°02'4 2.4
2017-Dec-15 09:47N 36°54' W 076°05'413.1
2017-Dec-15 09:30N 36°57' W 076°02'3 3.4
2017-Dec-15 08:36N 36°55' W 076°05'1 4.7
2017-Dec-15 08:24N 36°54' W 076°05'0 0.0
2017-Dec-15 07:59N 36°54' W 076°05'0 0.0
2017-Dec-15 06:23N 36°54' W 076°05'5 8.1
2017-Dec-15 05:49N 36°57' W 076°00'310.6
2017-Dec-15 05:30N 36°56' W 076°04'1 0.4
2017-Dec-15 02:27N 36°57' W 076°03'3 0.3
2017-Dec-14 18:30N 36°54' W 076°05'0 0.0
2017-Dec-14 18:00N 36°54' W 076°05'0 0.0
2017-Dec-14 17:30N 36°54' W 076°05'0 0.0
2017-Dec-14 17:00N 36°54' W 076°05'0 0.0
2017-Dec-14 16:30N 36°54' W 076°05'3 5.4
2017-Dec-14 15:51N 36°57' W 076°03'3 4.1
2017-Dec-14 15:00N 36°54' W 076°05'0 0.0
2017-Dec-14 14:30N 36°54' W 076°05'0 0.0
2017-Dec-14 14:00N 36°54' W 076°05'0 0.0
2017-Dec-14 13:30N 36°54' W 076°05'4 6.2
2017-Dec-14 12:52N 36°57' W 076°02'410.8
2017-Dec-14 12:30N 36°54' W 076°05'2 0.7
2017-Dec-14 09:25N 36°57' W 076°05'1 1.1
2017-Dec-14 08:18N 36°55' W 076°05'1 1.6
2017-Dec-14 07:44N 36°54' W 076°05'2 2.7
2017-Dec-14 07:00N 36°56' W 076°04'2 0.7
2017-Dec-14 03:57N 36°54' W 076°05'0 0.0
2017-Dec-13 22:06N 36°54' W 076°05'0 0.0
2017-Dec-13 21:58N 36°54' W 076°05'0 0.0
2017-Dec-13 21:31N 36°54' W 076°05'4 7.5
2017-Dec-13 21:00N 36°57' W 076°02'4 7.7
2017-Dec-13 20:30N 36°54' W 076°05'0 0.0
2017-Dec-13 20:00N 36°54' W 076°05'0 0.0
2017-Dec-13 19:31N 36°54' W 076°05'0 0.0
2017-Dec-13 19:00N 36°54' W 076°05'0 0.0
2017-Dec-13 18:30N 36°54' W 076°05'0 0.0
2017-Dec-13 18:00N 36°54' W 076°05'0 0.0
2017-Dec-13 17:30N 36°54' W 076°05'0 0.0
2017-Dec-13 17:00N 36°54' W 076°05'0 0.0
2017-Dec-13 16:31N 36°54' W 076°05'0 0.0
2017-Dec-13 16:00N 36°54' W 076°05'0 0.0
2017-Dec-13 15:31N 36°54' W 076°05'1 1.7
2017-Dec-13 15:00N 36°55' W 076°05'1 1.9
2017-Dec-13 14:30N 36°56' W 076°04'2 3.3
2017-Dec-13 14:00N 36°54' W 076°05'0 0.0
2017-Dec-13 13:30N 36°54' W 076°05'0 0.0
2017-Dec-13 13:00N 36°54' W 076°05'0 0.0
2017-Dec-13 12:30N 36°54' W 076°05'1 1.5
2017-Dec-13 12:00N 36°55' W 076°05'1 1.5
2017-Dec-13 11:30N 36°54' W 076°05'0 0.0
2017-Dec-13 10:58N 36°54' W 076°05'0 0.0
2017-Dec-13 10:29N 36°54' W 076°05'0 0.0
2017-Dec-13 09:20N 36°54' W 076°05'613.8
2017-Dec-13 08:53N 36°56' W 075°58'615.0
2017-Dec-13 08:30N 36°55' W 076°05'1 2.2
2017-Dec-13 08:00N 36°54' W 076°05'0 0.0
2017-Dec-13 07:28N 36°54' W 076°05'0 0.0
2017-Dec-13 07:00N 36°54' W 076°05'0 0.0
2017-Dec-13 06:29N 36°54' W 076°05'0 0.0
2017-Dec-13 05:56N 36°54' W 076°05'0 0.0
2017-Dec-13 05:30N 36°54' W 076°05'0 0.0
2017-Dec-13 04:57N 36°54' W 076°05'0 0.0
2017-Dec-13 04:30N 36°54' W 076°05'0 0.0
2017-Dec-13 03:57N 36°54' W 076°05'0 0.0
2017-Dec-13 03:28N 36°54' W 076°05'0 0.0
2017-Dec-13 03:00N 36°54' W 076°05'0 0.0
2017-Dec-13 02:26N 36°54' W 076°05'4 8.1
2017-Dec-13 01:57N 36°57' W 076°02'4 5.5
2017-Dec-13 01:13N 36°54' W 076°05'516.8
2017-Dec-13 00:56N 36°57' W 076°00'510.7
2017-Dec-13 00:30N 36°54' W 076°06'0 0.2
2017-Dec-12 23:56N 36°54' W 076°05'0 0.0
2017-Dec-12 23:29N 36°54' W 076°05'0 0.0
2017-Dec-12 21:57N 36°54' W 076°05'0 0.0
2017-Dec-12 21:30N 36°54' W 076°05'0 0.0
2017-Dec-12 21:00N 36°54' W 076°05'0 0.0
2017-Dec-12 20:30N 36°54' W 076°05'0 0.0
2017-Dec-12 20:00N 36°54' W 076°05'0 0.0
2017-Dec-12 19:30N 36°54' W 076°05'0 0.0
2017-Dec-12 19:01N 36°54' W 076°05'3 6.1
2017-Dec-12 18:30N 36°57' W 076°03'3 6.1
2017-Dec-12 18:00N 36°54' W 076°05'0 0.0
2017-Dec-12 17:30N 36°54' W 076°05'0 0.0
2017-Dec-12 17:00N 36°54' W 076°05'0 0.0
2017-Dec-12 16:30N 36°54' W 076°05'0 0.0
2017-Dec-12 16:00N 36°54' W 076°05'0 0.0
2017-Dec-12 15:30N 36°54' W 076°05'0 0.0
2017-Dec-12 15:00N 36°54' W 076°05'4 8.4
2017-Dec-12 14:28N 36°57' W 076°01'2 4.5
2017-Dec-12 13:58N 36°57' W 076°03'3 7.5
2017-Dec-12 13:30N 36°54' W 076°05'0 0.0
2017-Dec-12 13:01N 36°54' W 076°05'0 0.0
2017-Dec-12 12:30N 36°54' W 076°05'0 0.1
2017-Dec-12 10:25N 36°54' W 076°06'1 2.2
2017-Dec-12 09:57N 36°55' W 076°05'1 1.6
2017-Dec-12 09:17N 36°54' W 076°05'0 0.0
2017-Dec-12 08:56N 36°54' W 076°05'0 0.0
2017-Dec-12 08:30N 36°54' W 076°05'0 0.0
2017-Dec-12 07:55N 36°54' W 076°05'0 0.0
2017-Dec-12 07:29N 36°54' W 076°05'0 0.0
2017-Dec-12 06:29N 36°54' W 076°05'0 0.0
2017-Dec-12 06:00N 36°54' W 076°05'0 0.0
2017-Dec-12 05:27N 36°54' W 076°05'0 0.0
2017-Dec-12 04:59N 36°54' W 076°05'0 0.0
2017-Dec-12 04:05N 36°54' W 076°05'0 0.0
2017-Dec-12 03:57N 36°54' W 076°05'0 0.0
2017-Dec-12 03:10N 36°54' W 076°05'3 4.0
2017-Dec-12 02:29N 36°57' W 076°03'3 2.8
2017-Dec-12 01:31N 36°54' W 076°05'0 5.8
2017-Dec-12 01:29N 36°54' W 076°06'1 1.6
2017-Dec-12 01:00N 36°55' W 076°05'1 1.0
2017-Dec-12 00:13N 36°54' W 076°06'2 4.5
2017-Dec-11 23:47N 36°56' W 076°06'2 7.1
2017-Dec-11 23:29N 36°54' W 076°05'0 0.0
2017-Dec-11 22:57N 36°54' W 076°05'0 0.0
2017-Dec-11 22:30N 36°54' W 076°05'0 0.0
2017-Dec-11 22:00N 36°54' W 076°05'0 0.0
2017-Dec-11 21:30N 36°54' W 076°05'0 0.0
2017-Dec-11 21:00N 36°54' W 076°05'0 0.0
2017-Dec-11 20:30N 36°54' W 076°05'0 0.0
2017-Dec-11 20:00N 36°54' W 076°05'0 0.0
2017-Dec-11 19:30N 36°54' W 076°05'0 0.0
2017-Dec-11 19:00N 36°54' W 076°05'0 0.0
2017-Dec-11 18:30N 36°54' W 076°05'811.6
2017-Dec-11 17:50N 36°56' W 075°56'720.2
2017-Dec-11 17:30N 36°56' W 076°04'2 3.6
2017-Dec-11 17:00N 36°54' W 076°05'4 7.5
2017-Dec-11 16:26N 36°57' W 076°01'4 9.7
2017-Dec-11 16:00N 36°54' W 076°05'0 0.1
2017-Dec-11 15:30N 36°54' W 076°05'0 0.1
2017-Dec-11 15:01N 36°54' W 076°05'0 0.0
2017-Dec-11 14:31N 36°54' W 076°05'0 0.0
2017-Dec-11 14:01N 36°54' W 076°05'0 0.0
2017-Dec-11 13:30N 36°54' W 076°05'0 0.0
2017-Dec-11 13:00N 36°54' W 076°05'0 0.0
2017-Dec-11 12:30N 36°54' W 076°05'3 6.7
2017-Dec-11 12:00N 36°57' W 076°02'3 2.0
2017-Dec-11 10:18N 36°54' W 076°05'410.5
2017-Dec-11 09:54N 36°57' W 076°01'4 9.2
2017-Dec-11 09:27N 36°54' W 076°05'0 0.0
2017-Dec-11 08:59N 36°54' W 076°05'0 0.0
2017-Dec-11 08:30N 36°54' W 076°05'0 0.0
2017-Dec-11 08:00N 36°54' W 076°05'0 0.0
2017-Dec-11 07:30N 36°54' W 076°05'0 0.0
2017-Dec-11 07:00N 36°54' W 076°05'0 0.0
2017-Dec-11 06:28N 36°54' W 076°05'0 0.0
2017-Dec-11 06:00N 36°54' W 076°05'0 0.0
2017-Dec-11 05:30N 36°54' W 076°05'0 0.0
2017-Dec-11 04:59N 36°54' W 076°05'0 0.0
2017-Dec-11 04:30N 36°54' W 076°05'0 0.0
2017-Dec-11 03:58N 36°54' W 076°05'0 0.0
2017-Dec-11 03:28N 36°54' W 076°05'0 0.0
2017-Dec-11 02:23N 36°54' W 076°05'0 0.0
2017-Dec-11 01:58N 36°54' W 076°05'0 0.0
2017-Dec-11 01:24N 36°54' W 076°05'0 0.0
2017-Dec-11 00:59N 36°54' W 076°05'0 0.0
2017-Dec-10 23:07N 36°54' W 076°05'0 0.0
2017-Dec-10 21:58N 36°54' W 076°05'4 8.4
2017-Dec-10 21:30N 36°57' W 076°02'4 7.8
2017-Dec-10 21:00N 36°54' W 076°05'0 0.0
2017-Dec-10 20:30N 36°54' W 076°05'0 0.0
2017-Dec-10 20:00N 36°54' W 076°05'0 0.0
2017-Dec-10 19:30N 36°54' W 076°05'0 0.0
2017-Dec-10 19:00N 36°54' W 076°05'1 2.1
2017-Dec-10 18:30N 36°55' W 076°05'714.5
2017-Dec-10 17:59N 36°56' W 075°55'816.6
2017-Dec-10 17:30N 36°55' W 076°05'0 0.8
2017-Dec-10 17:00N 36°54' W 076°05'0 0.0
2017-Dec-10 16:30N 36°54' W 076°05'1 3.0
2017-Dec-10 16:00N 36°56' W 076°04'1 3.0
2017-Dec-10 15:30N 36°54' W 076°05'4 8.6
2017-Dec-10 15:00N 36°57' W 076°01'4 8.7
2017-Dec-10 14:30N 36°54' W 076°05'0 0.0
2017-Dec-10 14:00N 36°54' W 076°05'0 0.0
2017-Dec-10 13:30N 36°54' W 076°05'0 0.0
2017-Dec-10 13:00N 36°54' W 076°05'0 0.0
2017-Dec-10 12:30N 36°54' W 076°05'0 0.0
2017-Dec-10 08:11N 36°54' W 076°05'0 0.0
2017-Dec-10 07:52N 36°54' W 076°05'0 0.0
2017-Dec-10 07:29N 36°54' W 076°05'0 0.0
2017-Dec-10 06:59N 36°54' W 076°05'0 0.0
2017-Dec-10 06:23N 36°54' W 076°05'0 0.0
2017-Dec-10 05:36N 36°54' W 076°05'0 0.0
2017-Dec-10 05:30N 36°54' W 076°05'0 0.0
2017-Dec-10 04:58N 36°54' W 076°05'0 0.0
2017-Dec-10 04:21N 36°54' W 076°05'0 0.0
2017-Dec-10 03:57N 36°54' W 076°05'0 0.0
2017-Dec-10 03:22N 36°54' W 076°05'0 0.0
2017-Dec-09 21:57N 36°54' W 076°05'0 0.0
2017-Dec-09 21:30N 36°54' W 076°05'0 0.0
2017-Dec-09 21:00N 36°54' W 076°05'0 0.0
2017-Dec-09 20:30N 36°54' W 076°05'3 6.8
2017-Dec-09 20:00N 36°56' W 076°02'5 9.7
2017-Dec-09 19:30N 36°56' W 075°56'815.2
2017-Dec-09 19:00N 36°55' W 076°05'1 1.5
2017-Dec-09 18:30N 36°54' W 076°05'710.9
2017-Dec-09 17:52N 36°56' W 075°57'3 8.8
2017-Dec-09 17:31N 36°56' W 076°01'4 8.3
2017-Dec-09 17:00N 36°54' W 076°05'0 0.0
2017-Dec-09 16:30N 36°54' W 076°05'0 0.0
2017-Dec-09 16:00N 36°54' W 076°05'0 0.0
2017-Dec-09 15:30N 36°54' W 076°05'0 0.0
2017-Dec-09 15:00N 36°54' W 076°05'0 0.0
2017-Dec-09 14:30N 36°54' W 076°05'0 0.0
2017-Dec-09 14:00N 36°54' W 076°05'0 0.0
2017-Dec-09 13:30N 36°54' W 076°05'0 0.0
2017-Dec-09 13:00N 36°54' W 076°05'0 0.0
2017-Dec-09 12:30N 36°54' W 076°05'0 0.0
2017-Dec-09 09:24N 36°55' W 076°06'0 0.4
2017-Dec-09 08:58N 36°54' W 076°05'0 0.0
2017-Dec-09 06:27N 36°54' W 076°05'0 0.0
2017-Dec-09 04:19N 36°54' W 076°05'0 0.0
2017-Dec-09 03:59N 36°54' W 076°05'0 0.0
2017-Dec-09 03:28N 36°54' W 076°05'1 0.3
2017-Dec-08 23:49N 36°56' W 076°05'1 0.6
2017-Dec-08 21:58N 36°54' W 076°05'0 0.0
2017-Dec-08 21:30N 36°54' W 076°05'0 0.0
2017-Dec-08 21:00N 36°54' W 076°05'0 0.0
2017-Dec-08 20:30N 36°54' W 076°05'0 0.0
2017-Dec-08 20:00N 36°54' W 076°05'0 0.0
2017-Dec-08 19:31N 36°54' W 076°05'0 0.0
2017-Dec-08 19:01N 36°54' W 076°05'0 0.0
2017-Dec-08 18:30N 36°54' W 076°05'0 0.0
2017-Dec-08 18:01N 36°54' W 076°05'0 0.0
2017-Dec-08 17:30N 36°54' W 076°05'0 0.0
2017-Dec-08 17:00N 36°54' W 076°05'0 0.0
2017-Dec-08 16:30N 36°54' W 076°05'0 0.1
2017-Dec-08 16:00N 36°54' W 076°05'1 2.9
2017-Dec-08 15:30N 36°56' W 076°04'1 2.9
2017-Dec-08 15:00N 36°54' W 076°05'1 2.6
2017-Dec-08 14:31N 36°56' W 076°05'1 2.6
2017-Dec-08 14:00N 36°54' W 076°05'0 0.0
2017-Dec-08 13:30N 36°54' W 076°05'0 0.0
2017-Dec-08 13:00N 36°54' W 076°05'0 0.0
2017-Dec-08 12:30N 36°54' W 076°05'2 0.8
2017-Dec-08 10:28N 36°56' W 076°04'2 2.8
2017-Dec-08 09:52N 36°54' W 076°05'0 0.0
2017-Dec-08 09:29N 36°54' W 076°05'0 0.0
2017-Dec-08 08:59N 36°54' W 076°05'0 0.0
2017-Dec-08 08:26N 36°54' W 076°05'0 0.0
2017-Dec-08 07:55N 36°54' W 076°05'0 0.0
2017-Dec-08 07:26N 36°54' W 076°05'0 0.0
2017-Dec-08 06:56N 36°54' W 076°05'0 0.0
2017-Dec-08 06:29N 36°54' W 076°05'0 0.0
2017-Dec-08 06:00N 36°54' W 076°05'0 0.0
2017-Dec-08 05:28N 36°54' W 076°05'0 0.0
2017-Dec-08 04:59N 36°54' W 076°05'0 0.0
2017-Dec-08 04:29N 36°54' W 076°05'0 0.0
2017-Dec-08 04:00N 36°54' W 076°05'0 0.0
2017-Dec-08 03:30N 36°54' W 076°05'0 0.0
2017-Dec-08 03:00N 36°54' W 076°05'0 0.0
2017-Dec-08 02:21N 36°54' W 076°05'0 0.0
2017-Dec-08 01:56N 36°54' W 076°05'0 0.0
2017-Dec-08 01:30N 36°54' W 076°05'0 0.0
2017-Dec-08 00:59N 36°54' W 076°05'0 0.0
2017-Dec-08 00:30N 36°54' W 076°05'0 0.0
2017-Dec-07 23:00N 36°54' W 076°05'0 0.0
2017-Dec-07 21:57N 36°54' W 076°05'0 0.0
2017-Dec-07 21:30N 36°54' W 076°05'0 0.0
2017-Dec-07 21:00N 36°54' W 076°05'0 0.0
2017-Dec-07 20:30N 36°54' W 076°05'4 8.1
2017-Dec-07 20:00N 36°57' W 076°01'4 8.0
2017-Dec-07 19:30N 36°54' W 076°05'814.6
2017-Dec-07 18:56N 36°55' W 075°55'819.9
2017-Dec-07 18:30N 36°55' W 076°05'0 0.8
2017-Dec-07 17:59N 36°54' W 076°05'0 0.0
2017-Dec-07 17:30N 36°54' W 076°05'0 0.0
2017-Dec-07 17:00N 36°54' W 076°05'0 0.0
2017-Dec-07 16:30N 36°54' W 076°05'0 0.0
2017-Dec-07 16:00N 36°54' W 076°05'0 0.0
2017-Dec-07 15:30N 36°54' W 076°05'  

Dump ship's entire track history